createdAt,value
2023-05-22T00:00:20.656Z,13.50
2023-05-22T00:02:48.659Z,11.70
2023-05-22T00:05:15.730Z,10.60
2023-05-22T00:07:43.655Z,13.23
2023-05-22T00:10:11.091Z,14.03
2023-05-22T00:12:38.293Z,15.73
2023-05-22T00:15:06.272Z,14.83
2023-05-22T00:17:34.506Z,17.43
2023-05-22T00:20:08.335Z,13.53
2023-05-22T00:22:35.734Z,15.10
2023-05-22T00:25:07.090Z,17.90
2023-05-22T00:27:34.479Z,16.33
2023-05-22T00:30:01.730Z,16.77
2023-05-22T00:32:29.261Z,18.80
2023-05-22T00:34:56.182Z,19.57
2023-05-22T00:37:23.344Z,22.53
2023-05-22T00:39:50.306Z,16.27
2023-05-22T00:42:18.362Z,16.30
2023-05-22T00:44:45.281Z,16.23
2023-05-22T00:47:12.171Z,16.80
2023-05-22T00:49:39.051Z,17.90
2023-05-22T00:52:06.178Z,17.07
2023-05-22T00:54:33.577Z,19.10
2023-05-22T00:57:01.694Z,16.67
2023-05-22T00:59:29.569Z,19.40
2023-05-22T01:01:57.450Z,25.37
2023-05-22T01:04:25.972Z,20.43
2023-05-22T01:06:53.900Z,20.13
2023-05-22T01:09:20.970Z,20.47
2023-05-22T01:12:01.606Z,18.63
2023-05-22T01:14:47.329Z,20.43
2023-05-22T01:17:14.164Z,21.70
2023-05-22T01:19:54.204Z,27.00
2023-05-22T01:22:41.022Z,22.40
2023-05-22T01:25:12.233Z,22.00
2023-05-22T01:27:53.968Z,21.70
2023-05-22T01:30:35.377Z,21.73
2023-05-22T01:33:04.543Z,18.70
2023-05-22T01:35:33.714Z,20.03
2023-05-22T01:38:02.545Z,19.63
2023-05-22T01:40:29.904Z,27.20
2023-05-22T01:42:56.890Z,26.07
2023-05-22T01:45:24.302Z,25.80
2023-05-22T01:47:51.374Z,27.03
2023-05-22T01:50:19.190Z,24.60
2023-05-22T01:53:13.857Z,41.93
2023-05-22T01:55:50.903Z,32.27
2023-05-22T01:58:39.165Z,35.10
2023-05-22T02:01:09.212Z,35.40
2023-05-22T02:03:38.937Z,38.80
2023-05-22T02:06:08.991Z,40.67
2023-05-22T02:08:41.299Z,38.80
2023-05-22T02:11:10.245Z,50.20
2023-05-22T02:13:37.903Z,44.60
2023-05-22T02:16:05.699Z,51.50
2023-05-22T02:18:32.617Z,51.83
2023-05-22T02:21:00.220Z,50.93
2023-05-22T02:23:29.904Z,52.77
2023-05-22T02:25:57.313Z,53.40
2023-05-22T02:28:24.467Z,59.40
2023-05-22T02:30:51.596Z,49.63
2023-05-22T02:33:18.902Z,54.27
2023-05-22T02:35:46.332Z,60.60
2023-05-22T02:38:13.267Z,54.60
2023-05-22T02:40:40.596Z,64.70
2023-05-22T02:43:07.818Z,61.97
2023-05-22T02:45:34.737Z,64.57
2023-05-22T02:48:03.897Z,61.43
2023-05-22T02:50:30.907Z,60.30
2023-05-22T02:52:57.789Z,58.77
2023-05-22T02:55:24.668Z,64.10
2023-05-22T02:57:51.549Z,64.77
2023-05-22T03:00:19.068Z,68.70
2023-05-22T03:02:46.040Z,79.97
2023-05-22T03:05:18.214Z,65.43
2023-05-22T03:07:48.318Z,74.93
2023-05-22T03:10:15.769Z,69.37
2023-05-22T03:12:42.612Z,69.20
2023-05-22T03:15:10.181Z,66.53
2023-05-22T03:17:37.149Z,74.07
2023-05-22T03:20:05.508Z,75.77
2023-05-22T03:22:32.631Z,76.53
2023-05-22T03:24:59.588Z,81.77
2023-05-22T03:27:26.462Z,78.23
2023-05-22T03:29:53.487Z,72.27
2023-05-22T03:32:20.373Z,84.83
2023-05-22T03:34:47.238Z,80.27
2023-05-22T03:37:14.141Z,82.23
2023-05-22T03:39:41.072Z,73.30
2023-05-22T03:42:08.005Z,74.53
2023-05-22T03:44:34.896Z,84.53
2023-05-22T03:47:01.922Z,77.10
2023-05-22T03:49:28.778Z,78.33
2023-05-22T03:51:55.713Z,86.40
2023-05-22T03:54:22.605Z,79.87
2023-05-22T03:56:50.786Z,89.67
2023-05-22T03:59:17.795Z,88.27
2023-05-22T04:01:46.730Z,95.60
2023-05-22T04:04:13.656Z,92.87
2023-05-22T04:06:43.642Z,95.87
2023-05-22T04:09:14.384Z,89.83
2023-05-22T04:11:42.437Z,95.33
2023-05-22T04:14:09.767Z,88.13
2023-05-22T04:16:36.778Z,91.47
2023-05-22T04:19:04.136Z,83.40
2023-05-22T04:21:34.451Z,83.70
2023-05-22T04:24:02.344Z,83.67
2023-05-22T04:26:32.202Z,85.23
2023-05-22T04:28:59.271Z,80.97
2023-05-22T04:31:26.268Z,71.27
2023-05-22T04:33:54.800Z,89.37
2023-05-22T04:36:22.584Z,80.83
2023-05-22T04:38:50.404Z,78.50
2023-05-22T04:41:22.667Z,70.83
2023-05-22T04:43:49.968Z,76.63
2023-05-22T04:46:16.908Z,72.80
2023-05-22T04:48:43.804Z,65.73
2023-05-22T04:51:10.758Z,79.20
2023-05-22T04:53:38.856Z,64.13
2023-05-22T04:56:06.851Z,67.70
2023-05-22T04:58:33.922Z,70.30
2023-05-22T05:01:00.868Z,83.43
2023-05-22T05:03:28.674Z,82.57
2023-05-22T05:05:56.874Z,69.20
2023-05-22T05:08:23.759Z,64.67
2023-05-22T05:10:50.728Z,64.00
2023-05-22T05:13:17.655Z,86.93
2023-05-22T05:15:44.592Z,61.13
2023-05-22T05:18:12.414Z,61.70
2023-05-22T05:20:39.543Z,56.33
2023-05-22T05:23:06.676Z,61.03
2023-05-22T05:25:33.585Z,57.57
2023-05-22T05:28:00.518Z,54.63
2023-05-22T05:30:30.149Z,53.90
2023-05-22T05:32:57.133Z,54.23
2023-05-22T05:35:24.044Z,50.97
2023-05-22T05:37:51.881Z,43.47
2023-05-22T05:40:18.823Z,50.97
2023-05-22T05:42:45.792Z,47.03
2023-05-22T05:45:13.502Z,49.90
2023-05-22T05:47:40.945Z,42.50
2023-05-22T05:50:08.132Z,44.97
2023-05-22T05:52:35.124Z,46.37
2023-05-22T05:55:02.069Z,41.67
2023-05-22T05:57:31.181Z,52.27
2023-05-22T05:59:58.037Z,47.53
2023-05-22T06:02:25.065Z,47.17
2023-05-22T06:04:53.943Z,43.90
2023-05-22T06:07:21.117Z,43.73
2023-05-22T06:09:48.088Z,44.63
2023-05-22T06:12:14.962Z,48.50
2023-05-22T06:14:41.930Z,49.20
2023-05-22T06:17:09.484Z,47.87
2023-05-22T06:19:36.785Z,49.63
2023-05-22T06:22:03.951Z,49.30
2023-05-22T06:24:32.697Z,43.87
2023-05-22T06:26:59.981Z,52.07
2023-05-22T06:29:26.975Z,50.10
2023-05-22T06:31:53.953Z,47.23
2023-05-22T06:34:22.593Z,50.50
2023-05-22T06:36:52.762Z,50.67
2023-05-22T06:39:19.692Z,53.03
2023-05-22T06:41:46.549Z,55.50
2023-05-22T06:44:13.600Z,51.23
2023-05-22T06:46:40.499Z,49.73
2023-05-22T06:49:07.718Z,49.73
2023-05-22T06:51:34.585Z,45.20
2023-05-22T06:54:01.545Z,55.13
2023-05-22T06:56:28.394Z,50.10
2023-05-22T06:58:55.436Z,45.73
2023-05-22T07:01:23.465Z,48.60
2023-05-22T07:03:50.410Z,44.80
2023-05-22T07:06:18.512Z,47.40
2023-05-22T07:08:45.408Z,46.40
2023-05-22T07:11:12.393Z,45.10
2023-05-22T07:13:39.275Z,54.50
2023-05-22T07:16:06.695Z,49.17
2023-05-22T07:18:33.745Z,59.00
2023-05-22T07:21:00.918Z,53.63
2023-05-22T07:23:27.782Z,48.80
2023-05-22T07:25:54.833Z,53.80
2023-05-22T07:28:21.778Z,59.33
2023-05-22T07:30:48.676Z,52.13
2023-05-22T07:33:16.260Z,52.43
2023-05-22T07:35:43.903Z,48.60
2023-05-22T07:38:10.808Z,50.03
2023-05-22T07:40:38.097Z,48.93
2023-05-22T07:43:05.314Z,50.13
2023-05-22T07:45:32.215Z,50.80
2023-05-22T07:47:59.288Z,45.13
2023-05-22T07:50:27.131Z,46.60
2023-05-22T07:52:54.046Z,49.73
2023-05-22T07:55:20.966Z,49.03
2023-05-22T07:57:47.951Z,47.20
2023-05-22T08:00:17.252Z,43.90
2023-05-22T08:02:44.164Z,48.57
2023-05-22T08:05:12.342Z,49.23
2023-05-22T08:07:39.532Z,47.37
2023-05-22T08:10:15.262Z,57.33
2023-05-22T08:12:42.284Z,50.67
2023-05-22T08:15:09.722Z,48.17
2023-05-22T08:17:37.340Z,55.63
2023-05-22T08:20:05.741Z,63.67
2023-05-22T08:22:34.368Z,56.30
2023-05-22T08:25:01.372Z,57.13
2023-05-22T08:27:28.294Z,59.20
2023-05-22T08:29:55.225Z,53.43
2023-05-22T08:32:22.212Z,50.83
2023-05-22T08:34:49.447Z,51.10
2023-05-22T08:37:16.367Z,52.97
2023-05-22T08:39:43.393Z,44.80
2023-05-22T08:42:10.258Z,51.47
2023-05-22T08:44:37.269Z,51.27
2023-05-22T08:47:10.051Z,62.13
2023-05-22T08:49:40.192Z,56.77
2023-05-22T08:52:34.886Z,52.97
2023-05-22T08:55:05.265Z,59.70
2023-05-22T08:57:34.100Z,58.80
2023-05-22T09:00:01.156Z,56.30
2023-05-22T09:02:28.701Z,53.40
2023-05-22T09:04:57.449Z,63.40
2023-05-22T09:07:25.221Z,58.30
2023-05-22T09:09:52.117Z,50.80
2023-05-22T09:12:18.990Z,66.97
2023-05-22T09:14:45.897Z,50.00
2023-05-22T09:17:16.148Z,55.07
2023-05-22T09:19:44.909Z,54.27
2023-05-22T09:22:12.185Z,54.50
2023-05-22T09:24:42.750Z,53.70
2023-05-22T09:27:11.595Z,56.53
2023-05-22T09:29:57.735Z,63.80
2023-05-22T09:32:24.999Z,56.50
2023-05-22T09:34:51.962Z,59.13
2023-05-22T09:37:18.858Z,58.93
2023-05-22T09:39:47.613Z,60.37
2023-05-22T09:42:18.294Z,57.63
2023-05-22T09:44:51.879Z,59.17
2023-05-22T09:47:18.796Z,59.10
2023-05-22T09:49:46.411Z,58.87
2023-05-22T09:52:13.329Z,58.40
2023-05-22T09:54:55.578Z,62.43
2023-05-22T09:57:25.389Z,53.40
2023-05-22T09:59:55.140Z,53.87
2023-05-22T10:02:24.319Z,52.33
2023-05-22T10:04:51.977Z,58.43
2023-05-22T10:07:22.930Z,58.60
2023-05-22T10:09:57.157Z,64.53
2023-05-22T10:12:25.432Z,58.80
2023-05-22T10:14:54.746Z,58.53
2023-05-22T10:17:22.076Z,66.30
2023-05-22T10:19:57.856Z,57.00
2023-05-22T10:22:27.673Z,66.60
2023-05-22T10:24:55.116Z,67.73
2023-05-22T10:27:22.037Z,69.70
2023-05-22T10:30:01.393Z,58.80
2023-05-22T10:32:45.372Z,55.17
2023-05-22T10:35:21.738Z,54.87
2023-05-22T10:37:54.975Z,64.83
2023-05-22T10:40:43.288Z,62.97
2023-05-22T10:43:10.354Z,64.63
2023-05-22T10:45:37.313Z,57.63
2023-05-22T10:48:08.777Z,64.77
2023-05-22T10:50:36.837Z,61.70
2023-05-22T10:53:22.445Z,63.20
2023-05-22T10:55:53.981Z,66.33
2023-05-22T10:58:36.596Z,69.83
2023-05-22T11:01:19.516Z,67.33
2023-05-22T11:04:13.007Z,67.93
2023-05-22T11:06:46.866Z,67.27
2023-05-22T11:09:16.994Z,72.10
2023-05-22T11:11:43.940Z,69.80
2023-05-22T11:14:17.374Z,62.43
2023-05-22T11:16:44.394Z,71.07
2023-05-22T11:19:22.885Z,65.47
2023-05-22T11:21:51.256Z,65.07
2023-05-22T11:24:18.823Z,63.93
2023-05-22T11:27:07.888Z,68.40
2023-05-22T11:29:35.748Z,69.33
2023-05-22T11:32:03.124Z,63.97
2023-05-22T11:34:30.185Z,67.07
2023-05-22T11:37:00.123Z,66.33
2023-05-22T11:39:27.433Z,78.03
2023-05-22T11:41:54.890Z,75.33
2023-05-22T11:44:21.802Z,98.27
2023-05-22T11:46:48.926Z,69.97
2023-05-22T11:49:17.395Z,68.40
2023-05-22T11:51:44.659Z,69.83
2023-05-22T11:54:11.837Z,82.33
2023-05-22T11:56:38.745Z,78.43
2023-05-22T11:59:05.649Z,63.53
2023-05-22T12:01:32.901Z,78.30
2023-05-22T12:03:59.852Z,79.80
2023-05-22T12:06:26.935Z,69.07
2023-05-22T12:08:54.314Z,70.17
2023-05-22T12:11:21.812Z,82.00
2023-05-22T12:13:52.250Z,74.10
2023-05-22T12:16:22.057Z,75.60
2023-05-22T12:18:53.275Z,77.00
2023-05-22T12:21:21.006Z,74.77
2023-05-22T12:23:51.639Z,81.40
2023-05-22T12:26:19.185Z,72.33
2023-05-22T12:28:46.453Z,88.40
2023-05-22T12:31:23.589Z,77.93
2023-05-22T12:33:55.093Z,78.93
2023-05-22T12:36:22.613Z,88.73
2023-05-22T12:38:49.484Z,82.20
2023-05-22T12:41:16.344Z,76.40
2023-05-22T12:43:43.514Z,87.93
2023-05-22T12:46:15.752Z,80.43
2023-05-22T12:48:42.610Z,74.93
2023-05-22T12:51:09.744Z,80.90
2023-05-22T12:53:36.687Z,71.37
2023-05-22T12:56:04.329Z,82.60
2023-05-22T12:58:31.195Z,78.80
2023-05-22T13:00:58.209Z,77.20
2023-05-22T13:03:25.168Z,82.80
2023-05-22T13:05:52.189Z,80.67
2023-05-22T13:08:19.147Z,72.53
2023-05-22T13:10:46.107Z,89.47
2023-05-22T13:13:12.964Z,78.17
2023-05-22T13:15:40.113Z,81.33
2023-05-22T13:18:07.287Z,72.80
2023-05-22T13:20:37.257Z,79.30
2023-05-22T13:23:04.695Z,85.30
2023-05-22T13:25:31.699Z,77.67
2023-05-22T13:27:59.990Z,80.77
2023-05-22T13:30:27.189Z,75.60
2023-05-22T13:32:54.633Z,75.80
2023-05-22T13:35:21.667Z,71.87
2023-05-22T13:37:48.665Z,72.43
2023-05-22T13:40:16.650Z,70.73
2023-05-22T13:42:43.936Z,70.03
2023-05-22T13:45:11.512Z,71.03
2023-05-22T13:47:38.674Z,66.43
2023-05-22T13:50:06.287Z,74.03
2023-05-22T13:52:33.206Z,69.87
2023-05-22T13:55:00.562Z,65.67
2023-05-22T13:57:27.426Z,77.80
2023-05-22T13:59:54.369Z,66.30
2023-05-22T14:02:21.458Z,65.57
2023-05-22T14:04:52.266Z,66.40
2023-05-22T14:07:19.308Z,67.73
2023-05-22T14:09:46.214Z,61.57
2023-05-22T14:12:13.118Z,64.30
2023-05-22T14:14:40.018Z,57.47
2023-05-22T14:17:08.620Z,57.17
2023-05-22T14:19:35.945Z,118.13
2023-05-22T14:22:02.893Z,49.73
2023-05-22T14:24:30.008Z,49.90
2023-05-22T14:26:58.355Z,57.07
2023-05-22T14:29:26.046Z,54.10
2023-05-22T14:32:02.801Z,56.47
2023-05-22T14:34:29.918Z,46.70
2023-05-22T14:36:58.410Z,52.63
2023-05-22T14:39:25.963Z,40.87
2023-05-22T14:41:53.945Z,37.83
2023-05-22T14:44:22.763Z,52.77
2023-05-22T14:46:51.209Z,43.03
2023-05-22T14:49:18.228Z,37.47
2023-05-22T14:51:48.161Z,48.53
2023-05-22T14:54:18.134Z,41.30
2023-05-22T14:56:45.763Z,50.43
2023-05-22T14:59:12.820Z,50.53
2023-05-22T15:01:39.784Z,43.93
2023-05-22T15:04:08.117Z,39.97
2023-05-22T15:06:35.618Z,44.63
2023-05-22T15:09:02.457Z,41.43
2023-05-22T15:11:29.364Z,37.83
2023-05-22T15:13:56.457Z,37.43
2023-05-22T15:16:23.534Z,37.73
2023-05-22T15:18:50.723Z,47.03
2023-05-22T15:21:17.869Z,39.53
2023-05-22T15:23:44.781Z,38.23
2023-05-22T15:26:11.715Z,41.80
2023-05-22T15:28:38.596Z,35.23
2023-05-22T15:31:05.587Z,35.83
2023-05-22T15:33:34.161Z,35.90
2023-05-22T15:36:01.001Z,43.90
2023-05-22T15:38:28.443Z,38.57
2023-05-22T15:40:55.304Z,43.80
2023-05-22T15:43:23.391Z,33.70
2023-05-22T15:45:52.198Z,45.77
2023-05-22T15:48:19.212Z,46.13
2023-05-22T15:50:46.138Z,37.77
2023-05-22T15:53:13.139Z,33.67
2023-05-22T15:55:40.193Z,38.87
2023-05-22T15:58:08.103Z,37.53
2023-05-22T16:00:38.894Z,34.97
2023-05-22T16:03:08.460Z,49.07
2023-05-22T16:05:42.126Z,39.50
2023-05-22T16:08:12.420Z,49.47
2023-05-22T16:10:41.697Z,40.50
2023-05-22T16:13:10.812Z,33.20
2023-05-22T16:15:39.964Z,41.40
2023-05-22T16:18:07.816Z,34.63
2023-05-22T16:20:36.051Z,35.10
2023-05-22T16:23:03.117Z,50.17
2023-05-22T16:25:30.025Z,38.23
2023-05-22T16:27:57.030Z,35.20
2023-05-22T16:30:23.999Z,34.43
2023-05-22T16:32:51.197Z,41.60
2023-05-22T16:35:19.771Z,32.93
2023-05-22T16:37:46.737Z,58.10
2023-05-22T16:40:13.746Z,54.87
2023-05-22T16:42:40.624Z,46.43
2023-05-22T16:45:08.157Z,47.90
2023-05-22T16:47:35.082Z,43.23
2023-05-22T16:50:02.060Z,41.20
2023-05-22T16:52:29.140Z,31.37
2023-05-22T16:54:56.100Z,10.00
2023-05-22T16:57:23.298Z,8.77
2023-05-22T16:59:50.416Z,12.63
2023-05-22T17:02:17.315Z,10.27
2023-05-22T17:04:44.326Z,13.87
2023-05-22T17:07:11.174Z,11.07
2023-05-22T17:09:38.378Z,11.63
2023-05-22T17:12:05.897Z,10.67
2023-05-22T17:14:34.477Z,10.63
2023-05-22T17:17:01.405Z,10.33
2023-05-22T17:19:28.340Z,12.80
2023-05-22T17:21:56.769Z,27.73
2023-05-22T17:24:23.656Z,28.50
2023-05-22T17:26:50.665Z,21.40
2023-05-22T17:29:17.556Z,23.50
2023-05-22T17:31:44.470Z,16.67
2023-05-22T17:34:11.359Z,13.53
2023-05-22T17:36:38.301Z,17.00
2023-05-22T17:39:05.155Z,14.97
2023-05-22T17:41:32.208Z,18.40
2023-05-22T17:44:01.064Z,19.20
2023-05-22T17:46:28.202Z,16.70
2023-05-22T17:48:55.567Z,17.30
2023-05-22T17:51:22.794Z,19.60
2023-05-22T17:53:50.278Z,39.20
2023-05-22T17:56:17.427Z,19.43
2023-05-22T17:58:44.296Z,17.60
2023-05-22T18:01:11.439Z,20.57
2023-05-22T18:03:38.488Z,12.77
2023-05-22T18:06:05.855Z,15.67
2023-05-22T18:08:32.782Z,12.30
2023-05-22T18:10:59.656Z,13.17
2023-05-22T18:13:26.606Z,14.00
2023-05-22T18:15:53.959Z,13.43
2023-05-22T18:18:22.624Z,16.70
2023-05-22T18:20:49.835Z,12.70
2023-05-22T18:23:16.847Z,14.80
2023-05-22T18:25:43.758Z,16.70
2023-05-22T18:28:10.783Z,12.10
2023-05-22T18:30:37.903Z,12.73
2023-05-22T18:33:05.010Z,16.70
2023-05-22T18:35:31.977Z,11.03
2023-05-22T18:38:00.346Z,11.43
2023-05-22T18:40:27.298Z,26.17
2023-05-22T18:42:54.133Z,12.53
2023-05-22T18:45:21.088Z,12.40
2023-05-22T18:47:48.019Z,12.23
2023-05-22T18:50:15.161Z,12.70
2023-05-22T18:52:42.067Z,13.37
2023-05-22T18:55:09.395Z,11.90
2023-05-22T18:57:36.390Z,16.23
2023-05-22T19:00:03.466Z,13.57
2023-05-22T19:02:30.403Z,11.30
2023-05-22T19:04:57.384Z,13.37
2023-05-22T19:07:24.294Z,11.90
2023-05-22T19:09:51.575Z,11.57
2023-05-22T19:12:18.474Z,11.87
2023-05-22T19:14:45.331Z,9.23
2023-05-22T19:17:12.582Z,8.50
2023-05-22T19:19:39.731Z,9.70
2023-05-22T19:22:06.688Z,11.00
2023-05-22T19:24:33.590Z,5.70
2023-05-22T19:27:00.512Z,7.17
2023-05-22T19:29:27.376Z,5.67
2023-05-22T19:31:54.256Z,5.70
2023-05-22T19:34:21.654Z,4.90
2023-05-22T19:36:50.810Z,6.50
2023-05-22T19:39:17.981Z,5.27
2023-05-22T19:41:45.046Z,7.90
2023-05-22T19:44:12.027Z,4.43
2023-05-22T19:46:38.892Z,5.53
2023-05-22T19:49:05.944Z,7.87
2023-05-22T19:51:32.984Z,6.77
2023-05-22T19:53:59.906Z,4.93
2023-05-22T19:56:28.379Z,4.97
2023-05-22T19:58:55.226Z,4.00
2023-05-22T20:01:22.545Z,5.47
2023-05-22T20:03:49.633Z,8.93
2023-05-22T20:06:16.633Z,4.83
2023-05-22T20:08:44.362Z,5.73
2023-05-22T20:11:11.231Z,11.47
2023-05-22T20:13:38.094Z,4.43
2023-05-22T20:16:11.843Z,7.63
2023-05-22T20:18:41.199Z,7.00
2023-05-22T20:21:08.372Z,5.43
2023-05-22T20:23:35.299Z,6.23
2023-05-22T20:26:02.189Z,8.70
2023-05-22T20:28:29.137Z,7.53
2023-05-22T20:30:56.187Z,4.73
2023-05-22T20:33:23.363Z,6.83
2023-05-22T20:35:52.892Z,6.03
2023-05-22T20:38:20.159Z,6.63
2023-05-22T20:40:47.784Z,9.33
2023-05-22T20:43:14.920Z,21.00
2023-05-22T20:45:45.912Z,5.67
2023-05-22T20:48:13.826Z,9.77
2023-05-22T20:50:42.220Z,6.87
2023-05-22T20:53:09.221Z,7.70
2023-05-22T20:55:36.365Z,11.30
2023-05-22T20:58:03.246Z,6.27
2023-05-22T21:00:30.195Z,6.93
2023-05-22T21:02:58.392Z,5.33
2023-05-22T21:05:25.858Z,6.40
2023-05-22T21:07:52.900Z,7.70
2023-05-22T21:10:19.796Z,9.73
2023-05-22T21:12:46.756Z,8.97
2023-05-22T21:17:45.373Z,7.20
2023-05-22T21:20:12.491Z,8.50
2023-05-22T21:22:39.371Z,6.13
2023-05-22T21:25:06.823Z,8.10
2023-05-22T21:27:33.693Z,6.70
2023-05-22T21:30:00.602Z,7.07
2023-05-22T21:32:27.514Z,9.37
2023-05-22T21:34:54.461Z,7.70
2023-05-22T21:37:21.329Z,9.07
2023-05-22T21:39:48.173Z,9.00
2023-05-22T21:42:16.337Z,7.67
2023-05-22T21:44:43.194Z,13.70
2023-05-22T21:47:10.496Z,8.93
2023-05-22T21:49:39.583Z,7.90
2023-05-22T21:52:07.010Z,7.13
2023-05-22T21:54:33.890Z,9.47
2023-05-22T21:57:00.881Z,7.40
2023-05-22T21:59:27.823Z,7.30
2023-05-22T22:01:54.962Z,8.53
2023-05-22T22:04:21.850Z,8.70
2023-05-22T22:06:48.766Z,7.97
2023-05-22T22:09:15.851Z,8.03
2023-05-22T22:11:42.713Z,8.53
2023-05-22T22:14:09.580Z,9.60
2023-05-22T22:16:36.635Z,8.93
2023-05-22T22:19:04.022Z,8.67
2023-05-22T22:21:31.770Z,14.00
2023-05-22T22:23:58.667Z,9.30
2023-05-22T22:26:25.515Z,9.70
2023-05-22T22:28:52.750Z,15.07
2023-05-22T22:31:19.716Z,9.47
2023-05-22T22:33:46.601Z,13.23
2023-05-22T22:36:13.574Z,12.50
2023-05-22T22:38:40.510Z,11.53
2023-05-22T22:41:09.436Z,10.17
2023-05-22T22:43:36.417Z,19.10
2023-05-22T22:46:03.318Z,9.93
2023-05-22T22:48:30.231Z,10.87
2023-05-22T22:50:58.315Z,11.30
2023-05-22T22:53:25.254Z,19.60
2023-05-22T22:55:56.868Z,12.83
2023-05-22T22:58:23.952Z,14.37
2023-05-22T23:00:51.699Z,17.53
2023-05-22T23:03:18.757Z,18.60
2023-05-22T23:05:45.809Z,18.63
2023-05-22T23:08:13.332Z,16.77
2023-05-22T23:10:40.252Z,14.20
2023-05-22T23:13:07.180Z,17.00
2023-05-22T23:15:34.232Z,15.97
2023-05-22T23:18:01.272Z,16.90
2023-05-22T23:20:28.166Z,15.00
2023-05-22T23:22:55.061Z,14.60
2023-05-22T23:25:22.012Z,19.10
2023-05-22T23:27:48.910Z,24.20
2023-05-22T23:30:15.940Z,20.07
2023-05-22T23:32:42.842Z,17.20
2023-05-22T23:35:11.121Z,24.93
2023-05-22T23:37:38.240Z,20.80
2023-05-22T23:40:06.806Z,20.50
2023-05-22T23:42:35.453Z,18.53
2023-05-22T23:45:04.324Z,22.20
2023-05-22T23:47:34.049Z,23.43
2023-05-22T23:50:01.128Z,22.83
2023-05-22T23:52:28.039Z,22.07
2023-05-22T23:54:54.899Z,21.67
2023-05-22T23:57:21.814Z,19.73
2023-05-22T23:59:48.716Z,16.60
